createdAt,value
2023-03-23T15:58:19.090Z,101701.03
2023-03-23T16:00:47.003Z,101694.91
2023-03-23T16:03:27.709Z,101702.59
2023-03-23T16:05:57.548Z,101703.38
2023-03-23T16:08:24.339Z,101693.72
2023-03-23T16:10:51.233Z,101697.09
2023-03-23T16:13:18.478Z,101699.63
2023-03-23T16:15:47.702Z,101700.53
2023-03-23T16:18:19.090Z,101695.34
2023-03-23T16:20:47.571Z,101703.75
2023-03-23T16:23:14.458Z,101700.50
2023-03-23T16:25:41.474Z,101709.09
2023-03-23T16:28:12.891Z,101698.88
2023-03-23T16:30:40.584Z,101706.63
2023-03-23T16:33:07.435Z,101703.03
2023-03-23T16:35:34.614Z,101702.97
2023-03-23T16:38:08.061Z,101696.03
2023-03-23T16:40:39.230Z,101699.63
2023-03-23T16:43:09.128Z,101702.25
2023-03-23T16:45:37.747Z,101708.72
2023-03-23T16:48:05.565Z,101711.94
2023-03-23T16:50:32.970Z,101720.31
2023-03-23T16:53:00.030Z,101734.75
2023-03-23T16:55:28.032Z,101725.94
2023-03-23T16:58:05.401Z,101723.59
2023-03-23T17:00:40.786Z,101727.03
2023-03-23T17:03:08.211Z,101738.09
2023-03-23T17:05:37.196Z,101733.66
2023-03-23T17:08:05.109Z,101728.56
2023-03-23T17:10:32.331Z,101734.53
2023-03-23T17:12:59.355Z,101735.31
2023-03-23T17:15:26.796Z,101734.97
2023-03-23T17:17:55.167Z,101739.25
2023-03-23T17:20:23.223Z,101738.38
2023-03-23T17:22:50.136Z,101754.84
2023-03-23T17:25:16.871Z,101757.34
2023-03-23T17:27:43.760Z,101762.19
2023-03-23T17:30:11.559Z,101768.97
2023-03-23T17:32:38.548Z,101771.56
2023-03-23T17:35:06.620Z,101765.63
2023-03-23T17:37:33.562Z,101760.28
2023-03-23T17:40:00.468Z,101770.69
2023-03-23T17:42:27.625Z,101763.63
2023-03-23T17:44:54.381Z,101779.09
2023-03-23T17:47:21.345Z,101776.41
2023-03-23T17:49:48.176Z,101781.59
2023-03-23T17:52:15.344Z,101776.44
2023-03-23T17:54:42.342Z,101783.97
2023-03-23T17:57:09.378Z,101788.03
2023-03-23T17:59:36.266Z,101789.69
2023-03-23T18:02:03.135Z,101778.63
2023-03-23T18:04:30.671Z,101782.75
2023-03-23T18:06:58.402Z,101783.59
2023-03-23T18:09:25.840Z,101789.63
2023-03-23T18:11:53.237Z,101786.28
2023-03-23T18:14:20.883Z,101789.69
2023-03-23T18:16:48.326Z,101788.63
2023-03-23T18:19:15.689Z,101798.84
2023-03-23T18:21:45.334Z,101798.78
2023-03-23T18:24:13.094Z,101797.03
2023-03-23T18:26:40.734Z,101807.19
2023-03-23T18:29:07.581Z,101782.03
2023-03-23T18:31:39.998Z,101802.03
2023-03-23T18:34:08.072Z,101806.44
2023-03-23T18:36:35.678Z,101808.34
2023-03-23T18:39:03.970Z,101811.91
2023-03-23T18:41:30.825Z,101795.53
2023-03-23T18:43:58.012Z,101815.41
2023-03-23T18:46:25.199Z,101812.16
2023-03-23T18:48:52.147Z,101812.88
2023-03-23T18:51:19.340Z,101812.78
2023-03-23T18:53:46.228Z,101823.03
2023-03-23T18:56:16.151Z,101824.81
2023-03-23T18:58:44.263Z,101824.59
2023-03-23T19:01:14.677Z,101822.84
2023-03-23T19:03:42.165Z,101828.72
2023-03-23T19:06:35.719Z,101830.19
2023-03-23T19:09:02.644Z,101824.13
2023-03-23T19:11:29.649Z,101837.16
2023-03-23T19:14:02.598Z,101842.38
2023-03-23T19:16:32.591Z,101841.44
2023-03-23T19:19:01.977Z,101840.50
2023-03-23T19:21:32.063Z,101833.47
2023-03-23T19:24:00.649Z,101842.09
2023-03-23T19:26:39.285Z,101845.50
2023-03-23T19:31:38.941Z,101853.22
2023-03-23T19:34:06.216Z,101853.22
2023-03-23T19:36:33.508Z,101848.06
2023-03-23T19:39:02.625Z,101851.56
2023-03-23T19:41:30.667Z,101853.22
2023-03-23T19:43:59.919Z,101848.72
2023-03-23T19:46:30.269Z,101858.06
2023-03-23T19:48:58.886Z,101857.19
2023-03-23T19:51:26.834Z,101861.47
2023-03-23T19:53:58.474Z,101865.94
2023-03-23T19:56:26.244Z,101865.09
2023-03-23T19:58:53.210Z,101871.84
2023-03-23T20:01:20.387Z,101868.22
2023-03-23T20:03:48.554Z,101873.34
2023-03-23T20:06:15.762Z,101873.00
2023-03-23T20:08:45.746Z,101875.59
2023-03-23T20:11:17.171Z,101878.00
2023-03-23T20:13:45.616Z,101881.41
2023-03-23T20:16:12.473Z,101878.06
2023-03-23T20:18:40.379Z,101882.34
2023-03-23T20:21:10.528Z,101880.53
2023-03-23T20:23:38.838Z,101876.03
2023-03-23T20:26:09.413Z,101884.44
2023-03-23T20:28:36.608Z,101880.66
2023-03-23T20:31:18.988Z,101872.59
2023-03-23T20:33:59.658Z,101876.63
2023-03-23T20:36:35.186Z,101880.59
2023-03-23T20:39:11.613Z,101879.63
2023-03-23T20:41:40.509Z,101880.22
2023-03-23T20:44:14.247Z,101876.50
2023-03-23T20:46:51.937Z,101877.78
2023-03-23T20:49:21.001Z,101879.28
2023-03-23T20:51:48.583Z,101872.41
2023-03-23T20:54:18.902Z,101871.69
2023-03-23T20:56:47.438Z,101858.91
2023-03-23T20:59:15.579Z,101862.75
2023-03-23T21:01:42.877Z,101856.16
2023-03-23T21:04:15.484Z,101857.06
2023-03-23T21:06:44.086Z,101845.81
2023-03-23T21:09:12.192Z,101850.94
2023-03-23T21:11:39.264Z,101860.34
2023-03-23T21:14:06.960Z,101850.91
2023-03-23T21:16:34.469Z,101850.03
2023-03-23T21:19:03.516Z,101850.94
2023-03-23T21:21:31.181Z,101850.94
2023-03-23T21:23:58.216Z,101864.78
2023-03-23T21:26:28.965Z,101856.25
2023-03-23T21:29:00.072Z,101857.50
2023-03-23T21:31:31.807Z,101862.53
2023-03-23T21:34:00.217Z,101866.78
2023-03-23T21:36:27.926Z,101864.72
2023-03-23T21:38:56.132Z,101870.63
2023-03-23T21:41:23.223Z,101876.63
2023-03-23T21:43:51.568Z,101877.44
2023-03-23T21:46:18.966Z,101885.00
2023-03-23T21:48:51.761Z,101882.44
2023-03-23T21:51:28.178Z,101885.91
2023-03-23T21:53:58.667Z,101880.69
2023-03-23T21:56:28.591Z,101881.44
2023-03-23T21:58:56.947Z,101890.94
2023-03-23T22:01:25.205Z,101892.63
2023-03-23T22:03:52.162Z,101890.16
2023-03-23T22:06:23.543Z,101892.03
2023-03-23T22:08:51.514Z,101886.09
2023-03-23T22:11:21.586Z,101895.09
2023-03-23T22:13:51.480Z,101882.16
2023-03-23T22:16:19.917Z,101882.34
2023-03-23T22:18:48.165Z,101881.66
2023-03-23T22:21:16.819Z,101890.28
2023-03-23T22:23:45.441Z,101877.31
2023-03-23T22:26:14.050Z,101887.63
2023-03-23T22:28:41.820Z,101896.19
2023-03-23T22:31:17.123Z,101885.81
2023-03-23T22:33:45.675Z,101887.53
2023-03-23T22:36:12.944Z,101892.84
2023-03-23T22:38:43.884Z,101890.09
2023-03-23T22:41:17.897Z,101878.56
2023-03-23T22:43:45.804Z,101880.75
2023-03-23T22:46:12.873Z,101879.16
2023-03-23T22:48:40.776Z,101887.47
2023-03-23T22:51:09.157Z,101886.16
2023-03-23T22:53:36.323Z,101885.41
2023-03-23T22:56:04.092Z,101888.91
2023-03-23T22:58:31.261Z,101883.88
2023-03-23T23:01:05.524Z,101872.88
2023-03-23T23:03:34.034Z,101868.72
2023-03-23T23:06:01.565Z,101879.19
2023-03-23T23:08:30.127Z,101878.38
2023-03-23T23:10:58.894Z,101868.22
2023-03-23T23:13:26.892Z,101863.94
2023-03-23T23:15:58.331Z,101863.03
2023-03-23T23:18:30.050Z,101866.34
2023-03-23T23:21:00.117Z,101858.56
2023-03-23T23:23:28.184Z,101869.84
2023-03-23T23:25:55.495Z,101855.97
2023-03-23T23:28:22.974Z,101856.16
2023-03-23T23:30:51.042Z,101863.09
2023-03-23T23:33:19.110Z,101861.28
2023-03-23T23:35:46.416Z,101862.81
2023-03-23T23:38:14.028Z,101854.91
2023-03-23T23:40:43.239Z,101860.88
2023-03-23T23:43:12.299Z,101854.72
2023-03-23T23:45:40.469Z,101859.16
2023-03-23T23:48:07.435Z,101860.88
2023-03-23T23:50:34.345Z,101852.41
2023-03-23T23:53:01.481Z,101853.38
2023-03-23T23:55:28.796Z,101857.75
2023-03-23T23:57:56.154Z,101854.50
